• Join FlightAware (Why Join?)
  • Login
  • US Flag 
06:03AM EDT


 

Airport Tracker/Info


-or-


 

Live Flight TrackerFlight Track Log ✈ N185PF ✈ 11-Sep-2013 ✈ KSTP - KFSD

Flight Track Log - Related Links

Times and Time Zones

All times are in EDT time to prevent confusion due to time zone crossing. See the N185PF flight status page for this flight to view local times or setup timezone preferences in your user account.

Time Position Orientation Groundspeed Altitude Reporting Facility
EDT Latitude Longitude Course Direction KTS MPH feet Rate Location/Type
03:16PM 44.9500 -93.0500 313° West 79 91 1,500  Level Minneapolis TRACON
03:17PM 44.9667 -93.0333 35° Northeast 78 90 2,000 480 Climbing Minneapolis TRACON
03:18PM 44.9833 -93.0167 35° Northeast 80 92 2,500 420 Climbing Minneapolis TRACON
03:19PM 45.0167 -93.0167 360° North 69 79 2,900 420 Climbing Minneapolis TRACON
03:20PM 45.0333 -93.0333 325° Northwest 71 82 3,400 420 Climbing Minneapolis TRACON
03:21PM 45.0333 -93.0500 270° West 68 78 3,800 360 Climbing Minneapolis TRACON
03:22PM 45.0426 -93.2223 313° West  Level FlightAware Approximate
03:22PM 45.0458 -93.0653 319° Northwest 71 82 4,000  Level Minneapolis Center
03:23PM 45.0625 -93.0936 310° West 93 107 4,000  Level Minneapolis Center
03:24PM 45.0814 -93.1219 313° West 99 114 4,000 120 Level Minneapolis Center
03:25PM 45.0914 -93.1608 290° West 106 122 4,300 360 Climbing Minneapolis Center
03:26PM 45.0914 -93.1969 270° West 93 107 4,800 360 Climbing Minneapolis Center
03:27PM 45.0914 -93.2317 270° West 89 102 5,100 360 Climbing Minneapolis Center
03:28PM 45.0931 -93.2739 273° West 91 105 5,600 360 Climbing Minneapolis Center
03:29PM 45.0936 -93.3078 271° West 87 100 5,900 180 Climbing Minneapolis Center
03:30PM 45.0942 -93.3492 271° West 105 121 6,000  Climbing Minneapolis Center
03:31PM 45.0939 -93.3967 270° West 120 138 6,000  Level Minneapolis Center
03:32PM 45.0933 -93.4414 269° West 115 132 6,000  Level Minneapolis Center
03:33PM 45.0772 -93.4850 242° Southwest 123 142 6,000  Level Minneapolis Center
03:34PM 45.0569 -93.5353 240° Southwest 123 142 6,000  Level Minneapolis Center
03:35PM 45.0406 -93.5783 242° Southwest 125 144 6,000 -60 Level Minneapolis Center
03:36PM 45.0242 -93.6206 241° Southwest 123 142 5,900 -60 Descending Minneapolis Center
03:37PM 45.0094 -93.6631 244° Southwest 122 140 5,900  Level Minneapolis Center
03:38PM 44.9939 -93.7047 242° Southwest 120 138 6,000  Climbing Minneapolis Center
03:39PM 44.9747 -93.7561 242° Southwest 123 142 6,000  Level Minneapolis Center
03:40PM 44.9600 -93.8025 246° West 129 148 6,000 -60 Level Minneapolis Center
03:41PM 44.9428 -93.8436 239° Southwest 123 142 5,900  Descending Minneapolis Center
03:42PM 44.9283 -93.8836 243° Southwest 116 133 6,000  Climbing Minneapolis Center
03:43PM 44.9142 -93.9250 244° Southwest 118 136 6,000  Level Minneapolis Center
03:44PM 44.8981 -93.9708 244° Southwest 130 150 6,000  Level Minneapolis Center
03:46PM 44.8786 -94.0233 242° Southwest 126 145 6,000 -60 Level Minneapolis Center
03:47PM 44.8622 -94.0658 241° Southwest 124 143 5,900 -60 Descending Minneapolis Center
03:48PM 44.8456 -94.1086 241° Southwest 124 143 5,900  Level Minneapolis Center
03:49PM 44.8292 -94.1508 241° Southwest 123 142 5,900  Level Minneapolis Center
03:50PM 44.8144 -94.1919 243° Southwest 121 139 6,000  Climbing Minneapolis Center
03:51PM 44.7986 -94.2358 243° Southwest 125 144 6,000  Level Minneapolis Center
03:52PM 44.7806 -94.2861 243° Southwest 123 142 6,000 -60 Level Minneapolis Center
03:53PM 44.7644 -94.3289 242° Southwest 124 143 5,900 -60 Descending Minneapolis Center
03:54PM 44.7522 -94.3647 244° Southwest 127 146 5,900  Level Minneapolis Center
03:55PM 44.7339 -94.4161 243° Southwest 123 142 5,900  Level Minneapolis Center
03:56PM 44.7189 -94.4575 243° Southwest 120 138 5,900  Level Minneapolis Center
03:57PM 44.7033 -94.4994 242° Southwest 120 138 6,000  Climbing Minneapolis Center
03:58PM 44.6803 -94.5469 236° Southwest 123 142 6,000 -60 Level Minneapolis Center
03:59PM 44.6675 -94.5922 248° West 125 144 5,900 -60 Descending Minneapolis Center
04:00PM 44.6556 -94.6350 249° West 120 138 5,900  Level Minneapolis Center
04:01PM 44.6386 -94.6800 242° Southwest 118 136 6,000  Climbing Minneapolis Center
04:02PM 44.6225 -94.7217 241° Southwest 121 139 6,000  Level Minneapolis Center
04:03PM 44.6064 -94.7628 241° Southwest 120 138 6,000  Level Minneapolis Center
04:04PM 44.5878 -94.8028 237° Southwest 122 140 6,000  Level Minneapolis Center
04:05PM 44.5739 -94.8433 244° Southwest 119 137 6,000 -60 Level Minneapolis Center
04:06PM 44.5583 -94.8856 243° Southwest 119 137 5,900 -60 Descending Minneapolis Center
04:07PM 44.5383 -94.9361 241° Southwest 124 143 5,900  Level Minneapolis Center
04:08PM 44.5222 -94.9753 240° Southwest 119 137 5,900  Level Minneapolis Center
04:09PM 44.5061 -95.0158 241° Southwest 119 137 6,000  Climbing Minneapolis Center
04:10PM 44.4933 -95.0561 246° West 115 132 6,000  Level Minneapolis Center
04:11PM 44.4808 -95.0953 246° West 111 128 6,000  Level Minneapolis Center
04:12PM 44.4653 -95.1364 242° Southwest 116 133 6,100  Climbing Minneapolis Center
04:13PM 44.4450 -95.1825 238° Southwest 117 135 6,000 -120 Descending Minneapolis Center
04:14PM 44.4253 -95.2200 234° Southwest 119 137 5,900 -60 Descending Minneapolis Center
04:16PM 44.4053 -95.2575 233° Southwest 120 138 5,900  Level Minneapolis Center
04:17PM 44.3842 -95.3022 237° Southwest 116 133 5,900  Level Minneapolis Center
04:18PM 44.3664 -95.3422 238° Southwest 120 138 6,000  Climbing Minneapolis Center
04:19PM 44.3439 -95.3775 228° Southwest 121 139 6,000  Level Minneapolis Center
04:20PM 44.3253 -95.4239 241° Southwest 118 136 6,000  Level Minneapolis Center
04:21PM 44.3089 -95.4611 238° Southwest 115 132 6,000 -60 Level Minneapolis Center
04:22PM 44.2864 -95.5050 234° Southwest 115 132 5,900  Descending Minneapolis Center
04:23PM 44.2675 -95.5408 234° Southwest 115 132 6,000  Climbing Minneapolis Center
04:24PM 44.2478 -95.5761 232° Southwest 116 133 5,900  Descending Minneapolis Center
04:25PM 44.2300 -95.6142 237° Southwest 116 133 6,000  Climbing Minneapolis Center
04:26PM 44.2067 -95.6614 235° Southwest 119 137 5,900 -60 Descending Minneapolis Center
04:27PM 44.1861 -95.7033 236° Southwest 125 144 5,900  Level Minneapolis Center
04:28PM 44.1711 -95.7361 237° Southwest 126 145 5,900  Level Minneapolis Center
04:29PM 44.1464 -95.7828 234° Southwest 125 144 5,900  Level Minneapolis Center
04:30PM 44.1269 -95.8217 235° Southwest 124 143 5,900  Level Minneapolis Center
04:31PM 44.1086 -95.8617 237° Southwest 123 142 6,000  Climbing Minneapolis Center
04:32PM 44.0858 -95.9081 236° Southwest 122 140 5,900 -60 Descending Minneapolis Center
04:33PM 44.0636 -95.9464 231° Southwest 124 143 5,900  Level Minneapolis Center
04:35PM 44.0417 -95.9847 231° Southwest 125 144 6,000  Climbing Minneapolis Center
04:36PM 44.0206 -96.0233 233° Southwest 126 145 5,900  Descending Minneapolis Center
04:37PM 44.0011 -96.0622 235° Southwest 124 143 6,000 -120 Climbing Minneapolis Center
04:38PM 43.9814 -96.1025 236° Southwest 124 143 5,700 -360 Descending Minneapolis Center
04:39PM 43.9536 -96.1525 232° Southwest 131 151 5,300 -420 Descending Minneapolis Center
04:40PM 43.9322 -96.1942 235° Southwest 132 152 4,900 -360 Descending Minneapolis Center
04:41PM 43.9128 -96.2367 238° Southwest 132 152 4,600 -180 Descending Minneapolis Center
04:42PM 43.8928 -96.2764 235° Southwest 129 148 4,600 -60 Level Minneapolis Center
04:43PM 43.8753 -96.3133 237° Southwest 123 142 4,500 -60 Descending Minneapolis Center
04:44PM 43.8581 -96.3503 237° Southwest 118 136 4,500  Level Minneapolis Center
04:45PM 43.8314 -96.3772 216° Southwest 117 135 4,500  Level Minneapolis Center
04:46PM 43.7969 -96.4083 213° Southwest 120 138 4,500  Level Minneapolis Center
04:47PM 43.7697 -96.4353 216° Southwest 121 139 4,500  Level Minneapolis Center
04:48PM 43.7419 -96.4653 218° Southwest 123 142 4,600  Climbing Minneapolis Center
04:49PM 43.7147 -96.4950 218° Southwest 124 143 4,500 -300 Descending Minneapolis Center
04:50PM 43.6872 -96.5281 221° Southwest 127 146 4,100 -480 Descending Minneapolis Center
04:51PM 43.6547 -96.5711 224° Southwest 131 151 3,600 -480 Descending Minneapolis Center
04:52PM 43.6292 -96.6072 226° Southwest 132 152 3,100 -540 Descending Minneapolis Center
04:53PM 43.6039 -96.6425 225° Southwest 131 151 2,600 -480 Descending Minneapolis Center
04:54PM 43.5844 -96.6794 234° Southwest 126 145 2,200 -360 Descending Minneapolis Center
04:55PM 43.5703 -96.7158 242° Southwest 117 135 1,900 -300 Descending Minneapolis Center
04:56PM 43.5581 -96.7486 243° Southwest 114 131 1,700 -240 Descending Minneapolis Center